x

Molasses Reef, Fl (mlrf1) Weather Station

4:00am - Thu 23rd Oct 2014 All times are EDT. -4 hours from GMT.

  • Wind
    14mph, 17mph gusts
  • Sea Temp 83°f
  • Air Temp 78°f
  • Sea Pressure 1011.8mb
  • Molasses Reef, Fl
  • Molasses Reef, Fl

More Historic Weather Station data

Upgrade to MSW Pro to gain access to the past 30 days of data for over 8000 Wavebouys and Weather Stations around the globe.

Join Pro

Comparision Forecast

View Surf forecast
   
Thu 10/23 4:00am 14 17 mph 1011.8mb 83f 78f
3:00am 9 11 mph 1012.2mb 83f 78f
2:00am 9 11 mph 1013mb 83f 78f
1:00am 8 9 mph 1013.5mb 83f 78f
12:00am 9 11 mph 1013.4mb 83f 78f
Wed 10/22 11:00pm 9 11 mph 1013.6mb 83f 77f
10:00pm 13 14 mph 1013.6mb 83f 77f
9:00pm 5 6 mph 1014mb 83f 76f
8:00pm 7
mph
1014.2mb 83f 77f
7:00pm  -  mph 1013.4mb 83f 77f
6:00pm 2 3 mph 1012.9mb 83f 76f
5:00pm  -  1 mph 1012.6mb 83f 76f
4:00pm 7 8 mph 1013mb 83f 76f
3:00pm 1
mph
1012.9mb 83f 74f
2:00pm 18 22 mph 1013.2mb 83f 77f
1:00pm 5 6 mph 1014mb 83f 82f
12:00pm 9 11 mph 1014.5mb 83f 81f
11:00am 11
mph
1014.6mb 83f 79f
10:00am 8 9 mph 1014.7mb 83f 79f
9:00am 7 8 mph 1014.4mb 83f 80f
8:00am 7
mph
1013.8mb 83f 79f
7:00am 2
mph
1013.4mb 83f 81f
6:00am 2 5 mph 1012.8mb 83f 81f
5:00am 7 9 mph 1012.6mb 82f 81f
4:00am 8 9 mph 1012.4mb 82f 80f
3:00am 8 9 mph 1012.5mb 83f 80f
2:00am 7 8 mph 1013.2mb 83f 80f
1:00am 7 9 mph 1013.6mb 83f 80f
12:00am 6 7 mph 1014.3mb 83f 80f
Tue 10/21 11:00pm 8 9 mph 1014.9mb 83f 79f
10:00pm 11
mph
1014.8mb 83f 78f
9:00pm 9 11 mph 1014.4mb 83f 78f
8:00pm 6 7 mph 1013.7mb 83f 78f
7:00pm 5 6 mph 1013.5mb 83f 77f
6:00pm 6 7 mph 1012.9mb 83f 77f
5:00pm 6 7 mph 1012.6mb 83f 77f
4:00pm 10 11 mph 1012.4mb 83f 77f
3:00pm 8 9 mph 1013.2mb 83f 77f
2:00pm 7 8 mph 1014.4mb 83f 77f
1:00pm 10 11 mph 1014.9mb 83f 78f
12:00pm 13 14 mph 1015.2mb 83f 79f
11:00am 13 14 mph 1015.4mb 83f 79f
10:00am 13 14 mph 1014.8mb 83f 79f
9:00am 15 16 mph 1014.4mb 83f 78f
8:00am 18 20 mph 1013.5mb 83f 77f
7:00am 18 21 mph 1013.5mb 83f 75f
6:00am 10 13 mph 1014.3mb 83f 73f
5:00am 25 26 mph 1013.2mb 83f 74f
4:00am 13 17 mph 1012.2mb 83f 82f
3:00am 15 17 mph 1012.5mb 83f 82f
2:00am 16 17 mph 1013.2mb 83f 82f
1:00am 13 14 mph 1013.9mb 83f 82f
12:00am 14 15 mph 1014.7mb 83f 82f
Mon 10/20 11:00pm 13 15 mph 1015mb 83f 82f
10:00pm 14 15 mph 1015mb 83f 82f
9:00pm 14 15 mph 1014.4mb 84f 82f
8:00pm 15 17 mph 1013.8mb 84f 82f
7:00pm 14 15 mph 1013.9mb 84f 82f
6:00pm 15 16 mph 1013.3mb 84f 82f
5:00pm 14 15 mph 1013.5mb 84f 81f
4:00pm 14 17 mph 1013.7mb 84f 82f
3:00pm 17 20 mph 1014mb 84f 81f
2:00pm 15 16 mph 1014.7mb 84f 81f
1:00pm 17 21 mph 1015.5mb 84f 81f
12:00pm 15 16 mph 1016mb 84f 81f
11:00am 16 18 mph 1016.2mb 84f 81f
10:00am 17 20 mph 1016.2mb 84f 81f
9:00am 15 16 mph 1015.7mb 84f 81f
8:00am 15 16 mph 1015.3mb 84f 81f
7:00am 13 14 mph 1014.9mb 84f 81f
6:00am 11 14 mph 1014.8mb 84f 81f
5:00am 11 14 mph 1014.8mb 84f 81f
4:00am 10 13 mph 1014.9mb 84f 81f
3:00am 11 13 mph 1014.9mb 84f 81f
2:00am 13 14 mph 1015.4mb 84f 81f
1:00am 15 16 mph 1015.7mb 84f 81f
12:00am 16 20 mph 1015.7mb 84f 81f
Sun 10/19 11:00pm 13 14 mph 1016.2mb 84f 81f
10:00pm 11 13 mph 1016mb 84f 81f
9:00pm 9 10 mph 1015.6mb 84f 81f
8:00pm 13 14 mph 1015.4mb 84f 80f
7:00pm 10 14 mph 1015mb 84f 81f
6:00pm 9 13 mph 1014.4mb 84f 81f
5:00pm 7 8 mph 1014.4mb 84f 81f
4:00pm 9 10 mph 1014.6mb 84f 80f
3:00pm 8 9 mph 1014.2mb 84f 79f
2:00pm 7 8 mph 1014.6mb 84f 78f
1:00pm 6
mph
1015.3mb 84f 78f
12:00pm 3 5 mph 1015.8mb 84f 78f
11:00am 3 5 mph 1016.2mb 84f 78f
10:00am 5 6 mph 1016.1mb 84f 77f